createdAt,value
2022-11-26T00:04:53.747Z,33.20
2022-11-26T00:09:58.312Z,29.20
2022-11-26T00:15:17.005Z,24.60
2022-11-26T00:20:25.146Z,24.47
2022-11-26T00:26:03.704Z,29.90
2022-11-26T00:31:14.402Z,35.40
2022-11-26T00:36:31.303Z,46.57
2022-11-26T00:41:39.100Z,49.77
2022-11-26T00:46:42.117Z,54.27
2022-11-26T00:51:46.451Z,34.73
2022-11-26T00:56:50.747Z,38.43
2022-11-26T01:01:54.083Z,42.30
2022-11-26T01:06:56.875Z,39.90
2022-11-26T01:11:59.776Z,44.97
2022-11-26T01:17:02.758Z,36.80
2022-11-26T01:22:05.739Z,34.20
2022-11-26T01:27:12.106Z,29.97
2022-11-26T01:32:15.268Z,35.93
2022-11-26T01:37:18.110Z,34.53
2022-11-26T01:42:45.316Z,31.93
2022-11-26T01:47:48.684Z,25.07
2022-11-26T01:52:52.555Z,24.00
2022-11-26T01:57:55.497Z,24.07
2022-11-26T02:02:58.450Z,40.67
2022-11-26T02:08:02.290Z,24.03
2022-11-26T02:13:05.883Z,34.57
2022-11-26T02:18:09.927Z,33.20
2022-11-26T02:24:06.405Z,35.80
2022-11-26T02:29:15.106Z,28.93
2022-11-26T02:34:34.371Z,21.50
2022-11-26T02:39:40.367Z,35.63
2022-11-26T02:44:45.494Z,25.33
2022-11-26T02:49:50.448Z,45.07
2022-11-26T02:54:54.661Z,29.00
2022-11-26T02:59:58.246Z,29.90
2022-11-26T03:05:03.852Z,38.80
2022-11-26T03:10:07.817Z,39.97
2022-11-26T03:15:11.547Z,38.03
2022-11-26T03:20:16.234Z,36.63
2022-11-26T03:25:19.445Z,43.47
2022-11-26T03:30:22.905Z,37.57
2022-11-26T03:35:25.913Z,30.70
2022-11-26T03:40:28.833Z,28.90
2022-11-26T03:45:31.759Z,34.30
2022-11-26T03:50:34.680Z,24.93
2022-11-26T03:55:37.583Z,22.57
2022-11-26T04:00:40.496Z,29.70
2022-11-26T04:05:43.381Z,24.60
2022-11-26T04:10:46.248Z,23.63
2022-11-26T04:15:49.517Z,22.70
2022-11-26T04:20:53.496Z,25.47
2022-11-26T04:25:56.520Z,28.60
2022-11-26T04:30:59.462Z,28.70
2022-11-26T04:36:02.404Z,25.50
2022-11-26T04:41:05.731Z,27.63
2022-11-26T04:46:08.710Z,29.33
2022-11-26T04:51:11.610Z,43.27
2022-11-26T04:56:14.712Z,27.30
2022-11-26T05:01:17.687Z,41.27
2022-11-26T05:06:21.109Z,24.70
2022-11-26T05:11:24.151Z,20.87
2022-11-26T05:16:27.166Z,22.33
2022-11-26T05:21:30.192Z,18.80
2022-11-26T05:26:33.060Z,25.60
2022-11-26T05:31:36.108Z,22.70
2022-11-26T05:36:38.945Z,26.23
2022-11-26T05:41:41.946Z,18.87
2022-11-26T05:46:44.858Z,17.37
2022-11-26T05:51:47.791Z,22.73
2022-11-26T05:56:53.125Z,30.40
2022-11-26T06:01:59.977Z,26.60
2022-11-26T06:07:02.850Z,25.60
2022-11-26T06:12:07.242Z,29.53
2022-11-26T06:17:10.652Z,22.23
2022-11-26T06:22:13.701Z,20.57
2022-11-26T06:27:16.568Z,16.03
2022-11-26T06:32:20.109Z,15.63
2022-11-26T06:37:23.023Z,16.37
2022-11-26T06:42:26.129Z,20.57
2022-11-26T06:47:28.926Z,20.73
2022-11-26T06:52:31.619Z,18.00
2022-11-26T06:57:34.597Z,20.63
2022-11-26T07:02:38.510Z,24.80
2022-11-26T07:07:42.083Z,14.43
2022-11-26T07:12:45.080Z,20.33
2022-11-26T07:17:47.763Z,23.03
2022-11-26T07:22:50.779Z,23.37
2022-11-26T07:27:53.658Z,19.90
2022-11-26T07:32:56.629Z,22.83
2022-11-26T07:37:59.870Z,19.93
2022-11-26T07:43:02.916Z,19.57
2022-11-26T07:48:06.083Z,27.10
2022-11-26T07:53:08.779Z,18.33
2022-11-26T07:58:11.788Z,25.50
2022-11-26T08:03:14.801Z,24.40
2022-11-26T08:08:17.817Z,25.63
2022-11-26T08:13:20.784Z,22.60
2022-11-26T08:18:23.850Z,21.30
2022-11-26T08:23:28.450Z,25.70
2022-11-26T08:28:31.322Z,21.83
2022-11-26T08:33:35.350Z,36.13
2022-11-26T08:38:38.987Z,26.53
2022-11-26T08:44:05.545Z,25.53
2022-11-26T08:49:06.287Z,25.03
2022-11-26T08:54:10.147Z,26.87
2022-11-26T08:59:13.064Z,22.03
2022-11-26T09:04:16.387Z,24.93
2022-11-26T09:09:19.750Z,32.80
2022-11-26T09:14:26.316Z,22.17
2022-11-26T09:19:29.371Z,26.07
2022-11-26T09:24:32.313Z,21.63
2022-11-26T09:29:35.134Z,23.23
2022-11-26T09:34:38.532Z,27.17
2022-11-26T09:39:42.938Z,24.63
2022-11-26T09:45:01.753Z,24.00
2022-11-26T09:50:13.896Z,26.80
2022-11-26T09:55:26.210Z,30.07
2022-11-26T10:00:37.507Z,24.40
2022-11-26T10:05:52.455Z,31.38
2022-11-26T10:11:38.806Z,28.90
2022-11-26T10:16:50.734Z,54.43
2022-11-26T10:22:00.636Z,30.57
2022-11-26T10:27:26.835Z,29.33
2022-11-26T10:32:42.525Z,33.30
2022-11-26T10:37:46.026Z,31.10
2022-11-26T10:43:21.593Z,93.77
2022-11-26T10:48:29.284Z,34.73
2022-11-26T10:53:49.428Z,33.47
2022-11-26T10:58:54.270Z,28.33
2022-11-26T11:04:13.881Z,28.70
2022-11-26T11:09:31.857Z,31.40
2022-11-26T11:14:41.111Z,36.43
2022-11-26T11:19:45.500Z,32.63
2022-11-26T11:24:49.192Z,29.67
2022-11-26T11:29:52.523Z,38.33
2022-11-26T11:34:55.438Z,30.03
2022-11-26T11:40:17.026Z,30.53
2022-11-26T11:45:42.823Z,29.43
2022-11-26T11:51:15.125Z,25.83
2022-11-26T12:02:17.987Z,28.97
2022-11-26T12:07:37.596Z,24.97
2022-11-26T12:12:52.515Z,22.73
2022-11-26T12:18:31.588Z,45.37
2022-11-26T12:23:48.969Z,28.67
2022-11-26T12:29:13.206Z,56.63
2022-11-26T12:34:39.286Z,29.60
2022-11-26T12:40:06.406Z,31.33
2022-11-26T12:45:19.936Z,99.93
2022-11-26T12:51:03.116Z,43.70
2022-11-26T12:56:41.864Z,29.70
2022-11-26T13:01:44.757Z,29.57
2022-11-26T13:06:53.913Z,28.20
2022-11-26T13:12:18.334Z,30.73
2022-11-26T13:17:38.002Z,29.63
2022-11-26T13:23:24.185Z,25.80
2022-11-26T13:28:54.491Z,25.50
2022-11-26T13:34:03.079Z,30.30
2022-11-26T13:39:49.102Z,38.87
2022-11-26T13:45:14.412Z,28.97
2022-11-26T13:50:43.431Z,27.73
2022-11-26T13:55:52.548Z,28.70
2022-11-26T14:00:56.600Z,46.60
2022-11-26T14:06:03.632Z,39.37
2022-11-26T14:11:11.037Z,51.07
2022-11-26T14:16:13.978Z,46.90
2022-11-26T14:21:19.363Z,27.47
2022-11-26T14:26:40.076Z,24.67
2022-11-26T14:31:54.644Z,19.23
2022-11-26T14:37:00.795Z,23.40
2022-11-26T14:42:06.341Z,35.33
2022-11-26T14:47:20.832Z,47.93
2022-11-26T14:52:34.562Z,73.17
2022-11-26T14:58:13.483Z,32.37
2022-11-26T15:03:24.608Z,30.53
2022-11-26T15:08:27.766Z,25.15
2022-11-26T15:13:43.034Z,42.07
2022-11-26T15:18:46.508Z,34.73
2022-11-26T15:23:52.258Z,36.20
2022-11-26T15:28:55.238Z,34.00
2022-11-26T15:33:58.704Z,38.57
2022-11-26T15:39:08.012Z,36.93
2022-11-26T15:44:26.720Z,25.27
2022-11-26T15:49:40.261Z,40.27
2022-11-26T15:55:11.928Z,43.63
2022-11-26T16:05:38.785Z,42.13
2022-11-26T16:10:41.963Z,58.97
2022-11-26T16:16:16.950Z,38.17
2022-11-26T16:21:32.989Z,37.33
2022-11-26T16:27:00.992Z,31.40
2022-11-26T16:32:04.133Z,33.53
2022-11-26T16:37:30.039Z,49.43
2022-11-26T16:42:33.352Z,31.97
2022-11-26T16:47:49.923Z,35.50
2022-11-26T16:52:54.317Z,34.87
2022-11-26T16:58:01.327Z,40.47
2022-11-26T17:03:04.449Z,68.07
2022-11-26T17:08:12.029Z,67.83
2022-11-26T17:13:15.700Z,88.73
2022-11-26T17:18:25.260Z,69.10
2022-11-26T17:23:28.942Z,55.07
2022-11-26T17:28:31.889Z,38.53
2022-11-26T17:33:34.791Z,35.87
2022-11-26T17:38:37.851Z,32.27
2022-11-26T17:43:41.159Z,33.47
2022-11-26T17:48:44.687Z,34.07
2022-11-26T17:53:47.978Z,29.27
2022-11-26T17:58:51.344Z,34.87
2022-11-26T18:03:54.244Z,38.23
2022-11-26T18:08:57.156Z,31.33
2022-11-26T18:13:59.960Z,32.53
2022-11-26T18:19:02.803Z,33.53
2022-11-26T18:24:07.844Z,57.57
2022-11-26T18:29:11.890Z,52.00
2022-11-26T18:34:14.902Z,66.53
2022-11-26T18:39:17.938Z,59.73
2022-11-26T18:44:20.864Z,144.97
2022-11-26T18:49:24.380Z,83.00
2022-11-26T18:54:27.277Z,87.63
2022-11-26T18:59:30.318Z,70.60
2022-11-26T19:04:33.318Z,64.10
2022-11-26T19:09:37.990Z,60.40
2022-11-26T19:14:41.113Z,98.90
2022-11-26T19:19:44.063Z,66.97
2022-11-26T19:24:48.558Z,72.20
2022-11-26T19:29:51.576Z,77.37
2022-11-26T19:34:54.716Z,88.27
2022-11-26T19:39:57.627Z,59.73
2022-11-26T19:45:00.525Z,67.83
2022-11-26T19:50:03.680Z,67.03
2022-11-26T19:55:07.006Z,54.23
2022-11-26T20:00:10.867Z,67.03
2022-11-26T20:05:13.920Z,70.17
2022-11-26T20:10:16.864Z,69.27
2022-11-26T20:15:19.679Z,56.27
2022-11-26T20:20:22.717Z,74.77
2022-11-26T20:25:25.599Z,63.70
2022-11-26T20:30:29.259Z,64.13
2022-11-26T20:35:32.212Z,81.47
2022-11-26T20:40:35.351Z,55.70
2022-11-26T20:45:38.787Z,93.23
2022-11-26T20:50:41.777Z,61.33
2022-11-26T20:55:54.149Z,63.83
2022-11-26T21:00:57.904Z,88.03
2022-11-26T21:06:04.139Z,66.77
2022-11-26T21:11:08.214Z,59.67
2022-11-26T21:16:16.570Z,60.30
2022-11-26T21:21:21.249Z,52.13
2022-11-26T21:26:26.019Z,68.17
2022-11-26T21:31:31.206Z,68.30
2022-11-26T21:36:36.167Z,55.80
2022-11-26T21:41:39.036Z,59.33
2022-11-26T21:46:42.052Z,63.20
2022-11-26T21:51:45.029Z,55.40
2022-11-26T21:56:48.068Z,65.00
2022-11-26T22:01:51.270Z,59.30
2022-11-26T22:06:54.235Z,53.90
2022-11-26T22:11:57.225Z,45.07
2022-11-26T22:16:59.953Z,48.33
2022-11-26T22:22:02.804Z,47.07
2022-11-26T22:27:05.689Z,51.67
2022-11-26T22:32:08.591Z,48.77
2022-11-26T22:37:11.497Z,46.30
2022-11-26T22:42:14.497Z,43.13
2022-11-26T22:47:17.352Z,58.33
2022-11-26T22:52:20.789Z,46.40
2022-11-26T22:57:25.548Z,37.17
2022-11-26T23:02:29.418Z,47.57
2022-11-26T23:07:32.807Z,62.10
2022-11-26T23:12:35.700Z,53.77
2022-11-26T23:17:38.534Z,53.80
2022-11-26T23:22:41.433Z,42.40
2022-11-26T23:27:44.910Z,43.57
2022-11-26T23:32:48.131Z,37.00
2022-11-26T23:37:51.084Z,52.10
2022-11-26T23:42:54.027Z,51.40
2022-11-26T23:47:56.934Z,56.03
2022-11-26T23:52:59.798Z,36.47
2022-11-26T23:58:02.728Z,32.77
